Карточка аэропорта UAII

Внимание!
Информация на этой странице в стадии наполнения.
Если вы не увидели какой-то информации, или заметили неточность - пожалуйста сообщите нам!
Спасибо!
Команда RU-STAFF
Название аэропортаШымкент
Название аэропорта (англ.)Shymkent
Превышение1389 ft. (423.4 m.)
Координаты42°21.348', 69°28.734'
Высота перехода10000ft
Эшелон переходаFL120, QNH<733:FL130
Коды ответчика3430-3437, 3530-3537
Зона ОрВДШымкент РПИ (UAII)
Данные METARUAII 090800Z 29005MPS 4000 -SHSN BR BKN006 OVC020CB M02/M02 Q1010 NOSIG RMK QBB200 QFE720/0961
Проноз погоды (TAF)UAII 090503Z 0906/1006 26003G08MPS 1500 -SHSNRA BR BKN011 OVC033CB TX02/0906Z TNM05/1002Z TEMPO 0906/0912 29005G12MPS 0300 -SHSN FZFG BKN002 OVC011CB TEMPO 0912/0924 24003G08MPS 0200 SHSN FZFG BKN002 OVC011CB
NOTAMshow/hide NOTAM
AWOS   TABLE

Информация о ВПП

ВПП Длина ВПП (м.) Покрытие Курс ВПП Частота ILS
103300Железобетон106111.7
283300Железобетон286110.3

Диспетчерские позиции

Позывной Наименование органа УВД Частота
UAII_TWRШымкент Вышка125.9
UAII_APPШымкент-Подход120.3



Спутниковое изображение